Navy Ships, Pennsylvania
Current Conditions -  °F | °C
As of 4:56 AM on Sunday 26 Oct 2014 (Local Time) from KCXY Reporting Station
Clear Clear  
Wind Chill: 59°   Ceiling: Unl
Heat Index: 59°   Visibility: 10mi
Dew Point: 32°   Wind: 14mph
Humidity: 36%   Direction: 310°NW
Pressure: 29.69"   Gusts: 24mph
Location:  40.2485°N, 77.0142°W
Report Text: KCXY 260856Z AUTO 31012G21KT 10SM CLR 15/00 A2969 RMK AO2 PK WND 30029/0835 SLP055 T01500000 53022
Loading
Personal Weather Stations






























Interactive Weather Map
Tropical Storm Tracking
New forecast layout! Learn more

10-Day Weather Forecast

Advertisements
Track Severe Weather on mobile